createdAt,value
2018-05-31T00:01:36.405Z,98146.64
2018-05-31T00:04:03.785Z,98147.08
2018-05-31T00:06:30.623Z,98144.95
2018-05-31T00:08:57.005Z,98146.88
2018-05-31T00:11:23.386Z,98151.27
2018-05-31T00:13:49.766Z,98152.61
2018-05-31T00:16:16.157Z,98154.71
2018-05-31T00:18:42.534Z,98165.34
2018-05-31T00:21:08.946Z,98159.22
2018-05-31T00:23:35.364Z,98154.55
2018-05-31T00:26:02.089Z,98157.25
2018-05-31T00:28:28.475Z,98163.36
2018-05-31T00:30:54.849Z,98164.63
2018-05-31T00:33:21.269Z,98163.48
2018-05-31T00:35:48.458Z,98163.98
2018-05-31T00:38:14.852Z,98160.28
2018-05-31T00:40:42.224Z,98163.31
2018-05-31T00:43:08.646Z,98166.65
2018-05-31T00:45:35.816Z,98173.02
2018-05-31T00:48:02.194Z,98176.24
2018-05-31T00:50:28.597Z,98182.38
2018-05-31T00:52:54.981Z,98188.03
2018-05-31T00:55:40.550Z,98186.03
2018-05-31T00:58:07.711Z,98180.40
2018-05-31T01:00:34.939Z,98181.53
2018-05-31T01:03:01.316Z,98182.79
2018-05-31T01:05:28.054Z,98175.34
2018-05-31T01:07:54.448Z,98165.95
2018-05-31T01:10:20.908Z,98163.43
2018-05-31T01:12:48.046Z,98162.40
2018-05-31T01:15:14.703Z,98155.59
2018-05-31T01:17:41.100Z,98162.53
2018-05-31T01:20:07.512Z,98163.81
2018-05-31T01:22:34.691Z,98161.23
2018-05-31T01:25:01.877Z,98154.89
2018-05-31T01:27:28.255Z,98149.44
2018-05-31T01:29:54.809Z,98143.38
2018-05-31T01:32:21.963Z,98140.93
2018-05-31T01:34:49.281Z,98131.12
2018-05-31T01:37:15.714Z,98133.61
2018-05-31T01:39:42.122Z,98135.84
2018-05-31T01:42:08.605Z,98141.19
2018-05-31T01:44:35.774Z,98136.02
2018-05-31T01:47:02.900Z,98137.20
2018-05-31T01:49:29.925Z,98139.20
2018-05-31T01:51:56.390Z,98135.19
2018-05-31T01:54:22.779Z,98133.32
2018-05-31T01:56:49.265Z,98133.68
2018-05-31T01:59:16.417Z,98134.12
2018-05-31T02:01:43.867Z,98139.68
2018-05-31T02:04:11.002Z,98132.05
2018-05-31T02:06:37.419Z,98125.92
2018-05-31T02:09:03.915Z,98126.77
2018-05-31T02:11:30.317Z,98124.40
2018-05-31T02:13:57.488Z,98127.22
2018-05-31T02:16:24.129Z,98124.80
2018-05-31T02:18:50.866Z,98127.50
2018-05-31T02:21:17.276Z,98134.22
2018-05-31T02:23:44.453Z,98131.84
2018-05-31T02:26:10.881Z,98133.21
2018-05-31T02:28:37.296Z,98137.58
2018-05-31T02:31:04.413Z,98133.59
2018-05-31T02:33:30.844Z,98131.00
2018-05-31T02:35:57.283Z,98131.45
2018-05-31T02:38:23.743Z,98125.11
2018-05-31T02:40:50.998Z,98127.08
2018-05-31T02:43:18.209Z,98132.92
2018-05-31T02:45:44.685Z,98137.69
2018-05-31T02:48:11.830Z,98140.50
2018-05-31T02:50:38.982Z,98138.81
2018-05-31T02:53:06.110Z,98133.58
2018-05-31T02:55:32.537Z,98131.48
2018-05-31T02:57:59.790Z,98134.79
2018-05-31T03:00:26.473Z,98141.40
2018-05-31T03:02:52.993Z,98131.77
2018-05-31T03:05:20.112Z,98138.88
2018-05-31T03:07:46.553Z,98136.97
2018-05-31T03:10:13.014Z,98133.32
2018-05-31T03:12:39.503Z,98139.53
2018-05-31T03:15:05.887Z,98140.34
2018-05-31T03:17:32.279Z,98139.25
2018-05-31T03:19:58.650Z,98146.30
2018-05-31T03:22:25.294Z,98151.68
2018-05-31T03:24:52.332Z,98158.55
2018-05-31T03:27:18.712Z,98162.23
2018-05-31T03:29:45.179Z,98171.45
2018-05-31T03:32:12.384Z,98169.32
2018-05-31T03:34:38.741Z,98164.92
2018-05-31T03:37:05.120Z,98164.11
2018-05-31T03:39:31.529Z,98162.05
2018-05-31T03:41:57.934Z,98163.98
2018-05-31T03:44:24.303Z,98166.04
2018-05-31T03:46:50.746Z,98163.20
2018-05-31T03:49:17.490Z,98165.56
2018-05-31T03:51:43.919Z,98158.54
2018-05-31T03:54:10.306Z,98158.14
2018-05-31T03:56:36.791Z,98160.00
2018-05-31T03:59:03.169Z,98159.03
2018-05-31T04:01:29.654Z,98163.47
2018-05-31T04:03:56.747Z,98159.90
2018-05-31T04:06:23.450Z,98160.62
2018-05-31T04:08:49.875Z,98165.19
2018-05-31T04:11:16.308Z,98167.41
2018-05-31T04:13:42.761Z,98158.52
2018-05-31T04:16:09.164Z,98159.02
2018-05-31T04:18:35.533Z,98159.00
2018-05-31T04:21:02.048Z,98160.39
2018-05-31T04:23:28.494Z,98166.15
2018-05-31T04:25:54.909Z,98170.20
2018-05-31T04:28:21.329Z,98170.09
2018-05-31T04:30:47.736Z,98172.92
2018-05-31T04:33:15.131Z,98180.68
2018-05-31T04:35:41.534Z,98177.31
2018-05-31T04:38:08.675Z,98173.30
2018-05-31T04:40:35.893Z,98175.09
2018-05-31T04:43:02.268Z,98180.84
2018-05-31T04:45:28.704Z,98182.33
2018-05-31T04:47:55.855Z,98189.45
2018-05-31T04:50:22.995Z,98189.48
2018-05-31T04:52:50.286Z,98185.06
2018-05-31T04:55:16.786Z,98193.22
2018-05-31T04:57:43.926Z,98190.31
2018-05-31T05:00:14.818Z,98197.23
2018-05-31T05:02:44.772Z,98191.36
2018-05-31T05:05:14.562Z,98188.91
2018-05-31T05:07:43.577Z,98184.63
2018-05-31T05:10:13.611Z,98180.03
2018-05-31T05:12:41.989Z,98177.96
2018-05-31T05:15:08.466Z,98176.38
2018-05-31T05:17:34.937Z,98184.65
2018-05-31T05:20:01.334Z,98184.58
2018-05-31T05:22:27.822Z,98184.09
2018-05-31T05:24:55.005Z,98184.19
2018-05-31T05:27:21.732Z,98196.50
2018-05-31T05:29:48.117Z,98196.39
2018-05-31T05:32:14.573Z,98198.16
2018-05-31T05:34:41.684Z,98200.67
2018-05-31T05:37:08.705Z,98198.14
2018-05-31T05:39:35.217Z,98200.54
2018-05-31T05:42:02.353Z,98201.94
2018-05-31T05:44:29.502Z,98201.05
2018-05-31T05:46:56.635Z,98199.24
2018-05-31T05:49:23.765Z,98200.10
2018-05-31T05:51:50.195Z,98201.86
2018-05-31T05:54:16.624Z,98199.30
2018-05-31T05:56:43.056Z,98202.44
2018-05-31T05:59:09.447Z,98200.24
2018-05-31T06:01:35.906Z,98199.83
2018-05-31T06:04:02.323Z,98199.81
2018-05-31T06:06:28.757Z,98201.06
2018-05-31T06:08:55.179Z,98207.55
2018-05-31T06:11:21.557Z,98208.97
2018-05-31T06:13:48.267Z,98218.33
2018-05-31T06:16:14.965Z,98219.76
2018-05-31T06:18:41.403Z,98224.00
2018-05-31T06:21:08.631Z,98218.10
2018-05-31T06:23:35.095Z,98220.67
2018-05-31T06:26:02.558Z,98213.44
2018-05-31T06:28:29.222Z,98218.13
2018-05-31T06:30:55.654Z,98218.20
2018-05-31T06:33:22.095Z,98224.87
2018-05-31T06:35:48.851Z,98225.45
2018-05-31T06:38:15.291Z,98226.71
2018-05-31T06:40:41.647Z,98225.03
2018-05-31T06:43:08.322Z,98224.86
2018-05-31T06:45:34.777Z,98231.48
2018-05-31T06:48:01.255Z,98230.77
2018-05-31T06:50:28.141Z,98232.80
2018-05-31T06:52:54.802Z,98237.72
2018-05-31T06:55:21.716Z,98233.41
2018-05-31T06:57:48.146Z,98234.08
2018-05-31T07:00:15.353Z,98239.73
2018-05-31T07:02:41.702Z,98237.98
2018-05-31T07:05:08.089Z,98236.69
2018-05-31T07:07:34.664Z,98237.55
2018-05-31T07:10:01.333Z,98232.46
2018-05-31T07:12:28.894Z,98236.74
2018-05-31T07:14:56.085Z,98241.50
2018-05-31T07:17:22.500Z,98236.95
2018-05-31T07:19:48.873Z,98236.34
2018-05-31T07:22:15.249Z,98244.52
2018-05-31T07:24:41.702Z,98238.67
2018-05-31T07:27:08.108Z,98240.50
2018-05-31T07:29:34.941Z,98230.05
2018-05-31T07:32:02.098Z,98232.29
2018-05-31T07:34:28.517Z,98230.45
2018-05-31T07:36:55.657Z,98233.30
2018-05-31T07:39:22.002Z,98233.11
2018-05-31T07:41:49.174Z,98237.66
2018-05-31T07:44:15.593Z,98238.86
2018-05-31T07:46:41.953Z,98238.47
2018-05-31T07:49:08.378Z,98237.57
2018-05-31T07:51:34.854Z,98241.04
2018-05-31T07:54:01.211Z,98249.25
2018-05-31T07:56:28.399Z,98245.47
2018-05-31T07:58:55.613Z,98242.27
2018-05-31T08:01:22.724Z,98243.92
2018-05-31T08:03:49.182Z,98247.15
2018-05-31T08:06:15.609Z,98245.43
2018-05-31T08:08:42.989Z,98254.87
2018-05-31T08:11:10.216Z,98252.66
2018-05-31T08:13:36.590Z,98246.97
2018-05-31T08:16:03.038Z,98250.13
2018-05-31T08:18:29.500Z,98246.69
2018-05-31T08:20:55.893Z,98246.87
2018-05-31T08:23:22.283Z,98243.22
2018-05-31T08:25:49.420Z,98246.19
2018-05-31T08:28:15.855Z,98241.17
2018-05-31T08:30:42.325Z,98239.20
2018-05-31T08:33:08.695Z,98238.16
2018-05-31T08:35:35.137Z,98238.38
2018-05-31T08:38:01.581Z,98237.52
2018-05-31T08:40:27.951Z,98233.60
2018-05-31T08:42:54.377Z,98241.02
2018-05-31T08:45:21.573Z,98239.95
2018-05-31T08:47:48.023Z,98247.66
2018-05-31T08:50:14.423Z,98241.42
2018-05-31T08:52:40.826Z,98246.42
2018-05-31T08:55:07.968Z,98248.75
2018-05-31T08:57:35.109Z,98249.03
2018-05-31T09:00:02.263Z,98252.42
2018-05-31T09:02:29.395Z,98255.34
2018-05-31T09:04:57.446Z,98251.38
2018-05-31T09:07:23.881Z,98255.37
2018-05-31T09:09:50.302Z,98248.94
2018-05-31T09:12:17.104Z,98254.66
2018-05-31T09:14:44.460Z,98249.43
2018-05-31T09:17:11.813Z,98243.98
2018-05-31T09:19:38.983Z,98244.00
2018-05-31T09:22:05.378Z,98243.06
2018-05-31T09:24:31.717Z,98237.19
2018-05-31T09:26:58.871Z,98237.62
2018-05-31T09:29:26.204Z,98239.23
2018-05-31T09:31:52.603Z,98234.95
2018-05-31T09:34:18.988Z,98231.45
2018-05-31T09:36:46.198Z,98231.56
2018-05-31T09:39:12.604Z,98233.16
2018-05-31T09:41:39.037Z,98232.85
2018-05-31T09:44:05.519Z,98232.56
2018-05-31T09:46:31.905Z,98231.55
2018-05-31T09:48:58.311Z,98228.28
2018-05-31T09:51:25.180Z,98227.36
2018-05-31T09:53:51.547Z,98232.80
2018-05-31T09:56:18.013Z,98228.94
2018-05-31T09:58:45.183Z,98221.78
2018-05-31T10:01:11.613Z,98222.17
2018-05-31T10:03:37.985Z,98223.14
2018-05-31T10:06:04.438Z,98224.97
2018-05-31T10:08:30.949Z,98225.81
2018-05-31T10:10:57.635Z,98228.41
2018-05-31T10:13:25.449Z,98225.30
2018-05-31T10:15:51.826Z,98217.67
2018-05-31T10:18:18.959Z,98222.08
2018-05-31T10:20:45.357Z,98218.02
2018-05-31T10:23:11.739Z,98214.77
2018-05-31T10:25:38.878Z,98212.90
2018-05-31T10:28:05.323Z,98210.58
2018-05-31T10:30:32.687Z,98208.45
2018-05-31T10:32:59.853Z,98202.14
2018-05-31T10:35:26.470Z,98201.13
2018-05-31T10:37:53.637Z,98196.64
2018-05-31T10:40:20.093Z,98194.98
2018-05-31T10:42:46.540Z,98195.82
2018-05-31T10:45:12.929Z,98191.30
2018-05-31T10:47:39.393Z,98191.00
2018-05-31T10:50:05.756Z,98190.81
2018-05-31T10:52:32.149Z,98199.09
2018-05-31T10:54:58.519Z,98192.78
2018-05-31T10:57:24.887Z,98199.14
2018-05-31T10:59:51.283Z,98196.20
2018-05-31T11:02:17.926Z,98194.89
2018-05-31T11:04:44.283Z,98196.43
2018-05-31T11:07:11.439Z,98195.22
2018-05-31T11:09:37.867Z,98187.96
2018-05-31T11:12:04.977Z,98194.52
2018-05-31T11:14:31.381Z,98188.66
2018-05-31T11:16:57.829Z,98188.39
2018-05-31T11:19:24.229Z,98182.52
2018-05-31T11:21:50.591Z,98189.24
2018-05-31T11:24:16.950Z,98188.47
2018-05-31T11:26:43.365Z,98188.77
2018-05-31T11:29:09.755Z,98186.63
2018-05-31T11:31:36.148Z,98191.46
2018-05-31T11:34:02.621Z,98196.10
2018-05-31T11:36:29.245Z,98194.13
2018-05-31T11:38:55.699Z,98189.81
2018-05-31T11:41:22.074Z,98191.31
2018-05-31T11:43:48.406Z,98183.46
2018-05-31T11:46:14.787Z,98180.63
2018-05-31T11:48:41.177Z,98176.16
2018-05-31T11:51:07.836Z,98174.41
2018-05-31T11:53:35.081Z,98162.63
2018-05-31T11:56:02.211Z,98166.51
2018-05-31T11:58:28.844Z,98167.38
2018-05-31T12:00:55.493Z,98172.42
2018-05-31T12:03:21.884Z,98177.78
2018-05-31T12:05:48.303Z,98170.05
2018-05-31T12:08:14.803Z,98168.33
2018-05-31T12:10:41.123Z,98157.62
2018-05-31T12:13:07.482Z,98164.04
2018-05-31T12:15:33.857Z,98161.25
2018-05-31T12:18:00.297Z,98161.34
2018-05-31T12:20:26.672Z,98151.91
2018-05-31T12:22:53.798Z,98160.83
2018-05-31T12:25:20.236Z,98159.11
2018-05-31T12:27:46.585Z,98148.69
2018-05-31T12:30:13.722Z,98158.97
2018-05-31T12:32:40.841Z,98150.20
2018-05-31T12:35:07.181Z,98147.28
2018-05-31T12:37:33.606Z,98145.17
2018-05-31T12:40:00.288Z,98143.17
2018-05-31T12:42:26.813Z,98150.83
2018-05-31T12:44:54.276Z,98144.53
2018-05-31T12:47:21.373Z,98145.07
2018-05-31T12:49:47.797Z,98145.95
2018-05-31T12:52:14.172Z,98135.53
2018-05-31T12:54:41.297Z,98135.95
2018-05-31T12:57:07.675Z,98129.27
2018-05-31T12:59:34.075Z,98122.97
2018-05-31T13:02:00.739Z,98117.19
2018-05-31T13:04:27.883Z,98117.31
2018-05-31T13:06:54.999Z,98120.30
2018-05-31T13:09:21.450Z,98114.78
2018-05-31T13:11:47.852Z,98124.63
2018-05-31T13:14:14.248Z,98112.43
2018-05-31T13:16:40.612Z,98120.39
2018-05-31T13:19:07.278Z,98116.12
2018-05-31T13:21:33.792Z,98127.91
2018-05-31T13:24:00.171Z,98123.34
2018-05-31T13:26:27.283Z,98119.14
2018-05-31T13:28:53.680Z,98123.09
2018-05-31T13:31:20.039Z,98125.68
2018-05-31T13:33:47.606Z,98109.33
2018-05-31T13:36:14.060Z,98118.91
2018-05-31T13:38:41.157Z,98126.94
2018-05-31T13:41:07.661Z,98119.41
2018-05-31T13:43:34.125Z,98126.47
2018-05-31T13:46:00.535Z,98140.05
2018-05-31T13:48:27.136Z,98128.08
2018-05-31T13:50:53.667Z,98139.39
2018-05-31T13:53:20.284Z,98136.60
2018-05-31T13:55:46.934Z,98135.75
2018-05-31T13:58:13.425Z,98123.26
2018-05-31T14:00:39.992Z,98128.81
2018-05-31T14:03:06.489Z,98136.81
2018-05-31T14:05:33.145Z,98128.72
2018-05-31T14:07:59.511Z,98135.08
2018-05-31T14:10:26.214Z,98131.86
2018-05-31T14:12:52.577Z,98133.31
2018-05-31T14:15:19.120Z,98121.38
2018-05-31T14:17:45.471Z,98128.39
2018-05-31T14:20:12.624Z,98125.31
2018-05-31T14:22:39.949Z,98131.13
2018-05-31T14:25:06.350Z,98132.25
2018-05-31T14:27:32.810Z,98141.81
2018-05-31T14:29:59.391Z,98135.31
2018-05-31T14:32:26.260Z,98145.70
2018-05-31T14:34:52.801Z,98128.51
2018-05-31T14:37:19.327Z,98140.77
2018-05-31T14:39:45.741Z,98139.77
2018-05-31T14:42:12.372Z,98140.23
2018-05-31T14:44:38.731Z,98133.36
2018-05-31T14:47:05.263Z,98150.56
2018-05-31T14:49:31.657Z,98128.40
2018-05-31T14:51:58.776Z,98123.08
2018-05-31T14:54:25.374Z,98125.04
2018-05-31T14:56:51.804Z,98118.13
2018-05-31T14:59:18.103Z,98117.49
2018-05-31T15:01:45.194Z,98130.41
2018-05-31T15:04:12.179Z,98117.87
2018-05-31T15:06:38.551Z,98118.05
2018-05-31T15:09:05.025Z,98113.83
2018-05-31T15:11:31.581Z,98128.49
2018-05-31T15:13:58.732Z,98119.31
2018-05-31T15:16:25.101Z,98122.64
2018-05-31T15:18:51.671Z,98116.09
2018-05-31T15:21:18.018Z,98114.58
2018-05-31T15:23:44.393Z,98114.55
2018-05-31T15:26:17.762Z,98095.93
2018-05-31T15:28:44.887Z,98096.83
2018-05-31T15:31:11.293Z,98102.48
2018-05-31T15:33:37.869Z,98083.44
2018-05-31T15:36:05.071Z,98093.80
2018-05-31T15:38:31.544Z,98106.05
2018-05-31T15:40:58.157Z,98093.22
2018-05-31T15:43:24.742Z,98103.28
2018-05-31T15:45:51.888Z,98109.27
2018-05-31T15:48:19.069Z,98101.14
2018-05-31T15:50:45.519Z,98100.94
2018-05-31T15:53:11.961Z,98109.66
2018-05-31T15:55:39.981Z,98121.41
2018-05-31T15:58:07.132Z,98107.22
2018-05-31T16:00:34.282Z,98106.21
2018-05-31T16:03:01.648Z,98108.45
2018-05-31T16:05:29.980Z,98107.33
2018-05-31T16:07:56.855Z,98109.53
2018-05-31T16:10:23.988Z,98108.67
2018-05-31T16:12:51.501Z,98113.06
2018-05-31T16:15:18.214Z,98104.41
2018-05-31T16:17:45.381Z,98107.52
2018-05-31T16:20:11.925Z,98107.63
2018-05-31T16:22:38.449Z,98103.92
2018-05-31T16:25:04.821Z,98102.94
2018-05-31T16:27:31.257Z,98110.61
2018-05-31T16:29:58.562Z,98095.05
2018-05-31T16:32:25.172Z,98103.77
2018-05-31T16:34:52.402Z,98106.84
2018-05-31T16:37:19.150Z,98108.45
2018-05-31T16:39:45.991Z,98109.56
2018-05-31T16:42:12.377Z,98115.89
2018-05-31T16:44:39.477Z,98108.58
2018-05-31T16:47:06.282Z,98096.78
2018-05-31T16:49:32.705Z,98095.22
2018-05-31T16:51:59.090Z,98098.08
2018-05-31T16:54:26.340Z,98085.53
2018-05-31T16:56:53.887Z,98079.24
2018-05-31T16:59:21.013Z,98075.80
2018-05-31T17:01:47.476Z,98075.31
2018-05-31T17:04:13.940Z,98070.84
2018-05-31T17:06:40.313Z,98059.95
2018-05-31T17:09:06.943Z,98060.16
2018-05-31T17:11:33.596Z,98054.67
2018-05-31T17:13:59.990Z,98055.37
2018-05-31T17:16:27.033Z,98055.34
2018-05-31T17:18:54.265Z,98052.11
2018-05-31T17:21:20.735Z,98052.23
2018-05-31T17:23:47.120Z,98048.77
2018-05-31T17:26:14.626Z,98047.73
2018-05-31T17:28:42.326Z,98060.88
2018-05-31T17:31:08.756Z,98054.47
2018-05-31T17:33:35.669Z,98067.72
2018-05-31T17:36:02.067Z,98076.25
2018-05-31T17:38:29.247Z,98090.13
2018-05-31T17:40:55.672Z,98094.05
2018-05-31T17:43:22.124Z,98108.97
2018-05-31T17:45:49.277Z,98119.37
2018-05-31T17:48:16.712Z,98119.61
2018-05-31T17:50:43.092Z,98112.40
2018-05-31T17:53:09.454Z,98109.09
2018-05-31T17:55:35.857Z,98100.48
2018-05-31T17:58:03.022Z,98102.89
2018-05-31T18:00:30.377Z,98097.42
2018-05-31T18:02:57.508Z,98083.41
2018-05-31T18:05:23.967Z,98080.39
2018-05-31T18:07:50.455Z,98083.89
2018-05-31T18:10:18.161Z,98082.92
2018-05-31T18:12:45.286Z,98077.44
2018-05-31T18:15:11.783Z,98085.95
2018-05-31T18:17:38.261Z,98084.88
2018-05-31T18:20:04.925Z,98101.62
2018-05-31T18:22:31.380Z,98106.97
2018-05-31T18:24:57.778Z,98109.88
2018-05-31T18:27:25.079Z,98120.73
2018-05-31T18:29:51.478Z,98118.92
2018-05-31T18:32:17.933Z,98120.59
2018-05-31T18:34:44.322Z,98129.66
2018-05-31T18:37:10.932Z,98129.05
2018-05-31T18:39:38.381Z,98133.29
2018-05-31T18:42:05.104Z,98127.16
2018-05-31T18:44:31.506Z,98135.72
2018-05-31T18:46:57.914Z,98135.13
2018-05-31T18:49:24.668Z,98147.53
2018-05-31T18:51:51.326Z,98138.54
2018-05-31T18:54:18.242Z,98138.70
2018-05-31T18:56:46.163Z,98138.74
2018-05-31T18:59:14.341Z,98143.35
2018-05-31T19:01:41.172Z,98148.23
2018-05-31T19:04:07.589Z,98147.31
2018-05-31T19:06:34.128Z,98146.30
2018-05-31T19:09:00.778Z,98141.23
2018-05-31T19:11:27.650Z,98144.16
2018-05-31T19:13:58.355Z,98137.38
2018-05-31T19:16:24.886Z,98136.47
2018-05-31T19:18:58.389Z,98131.31
2018-05-31T19:21:25.009Z,98127.47
2018-05-31T19:23:51.728Z,98117.66
2018-05-31T19:26:18.177Z,98112.41
2018-05-31T19:28:44.633Z,98110.47
2018-05-31T19:31:11.976Z,98109.28
2018-05-31T19:33:38.488Z,98111.37
2018-05-31T19:36:11.079Z,98114.64
2018-05-31T19:38:37.707Z,98108.47
2018-05-31T19:41:04.115Z,98103.80
2018-05-31T19:43:37.344Z,98109.47
2018-05-31T19:46:03.724Z,98120.19
2018-05-31T19:48:30.598Z,98132.16
2018-05-31T19:50:57.749Z,98140.46
2018-05-31T19:53:30.966Z,98145.73
2018-05-31T19:55:57.435Z,98143.09
2018-05-31T19:58:29.884Z,98150.98
2018-05-31T20:01:02.375Z,98154.53
2018-05-31T20:03:28.767Z,98154.31
2018-05-31T20:05:55.144Z,98152.64
2018-05-31T20:08:21.674Z,98157.44
2018-05-31T20:10:48.240Z,98159.52
2018-05-31T20:13:15.772Z,98153.76
2018-05-31T20:15:43.031Z,98161.55
2018-05-31T20:18:10.766Z,98161.55
2018-05-31T20:20:38.950Z,98166.09
2018-05-31T20:23:05.788Z,98157.70
2018-05-31T20:25:32.378Z,98154.98
2018-05-31T20:27:59.980Z,98160.53
2018-05-31T20:30:26.595Z,98158.25
2018-05-31T20:32:56.539Z,98173.05
2018-05-31T20:35:23.967Z,98173.91
2018-05-31T20:37:50.386Z,98170.91
2018-05-31T20:40:17.889Z,98163.28
2018-05-31T20:42:44.257Z,98160.48
2018-05-31T20:45:10.928Z,98162.29
2018-05-31T20:47:37.741Z,98162.66
2018-05-31T20:50:04.860Z,98155.27
2018-05-31T20:52:31.482Z,98147.00
2018-05-31T20:54:57.989Z,98137.76
2018-05-31T20:57:24.465Z,98135.34
2018-05-31T20:59:50.934Z,98129.34
2018-05-31T21:02:17.321Z,98124.30
2018-05-31T21:04:44.051Z,98124.30
2018-05-31T21:07:11.159Z,98132.48
2018-05-31T21:09:37.641Z,98130.67
2018-05-31T21:12:04.103Z,98128.95
2018-05-31T21:14:30.577Z,98119.55
2018-05-31T21:16:56.942Z,98125.22
2018-05-31T21:19:23.375Z,98127.45
2018-05-31T21:21:50.799Z,98119.14
2018-05-31T21:24:17.207Z,98127.35
2018-05-31T21:26:44.327Z,98115.91
2018-05-31T21:29:10.959Z,98106.48
2018-05-31T21:31:37.313Z,98093.02
2018-05-31T21:34:05.836Z,98101.44
2018-05-31T21:36:32.201Z,98109.20
2018-05-31T21:38:58.640Z,98112.98
2018-05-31T21:41:25.181Z,98122.08
2018-05-31T21:43:51.572Z,98137.66
2018-05-31T21:46:17.922Z,98140.38
2018-05-31T21:48:44.410Z,98139.69
2018-05-31T21:51:11.640Z,98136.72
2018-05-31T21:53:38.058Z,98145.31
2018-05-31T21:56:04.471Z,98144.91
2018-05-31T21:58:30.851Z,98159.89
2018-05-31T22:00:57.976Z,98171.05
2018-05-31T22:03:24.746Z,98211.27
2018-05-31T22:05:52.201Z,98262.30
2018-05-31T22:08:19.404Z,98372.38
2018-05-31T22:10:45.899Z,98356.88
2018-05-31T22:13:12.327Z,98369.84
2018-05-31T22:15:38.794Z,98358.98
2018-05-31T22:18:05.237Z,98366.12
2018-05-31T22:20:31.658Z,98378.63
2018-05-31T22:22:58.117Z,98383.09
2018-05-31T22:25:25.897Z,98393.39
2018-05-31T22:27:53.036Z,98382.70
2018-05-31T22:30:20.235Z,98405.02
2018-05-31T22:32:46.616Z,98457.59
2018-05-31T22:35:13.030Z,98447.03
2018-05-31T22:37:39.426Z,98437.77
2018-05-31T22:40:05.953Z,98450.12
2018-05-31T22:42:32.431Z,98459.11
2018-05-31T22:44:58.801Z,98468.77
2018-05-31T22:47:25.925Z,98464.88
2018-05-31T22:49:53.071Z,98457.31
2018-05-31T22:52:19.468Z,98444.41
2018-05-31T22:54:45.869Z,98425.16
2018-05-31T22:57:12.250Z,98437.97
2018-05-31T22:59:46.174Z,98443.83
2018-05-31T23:02:12.571Z,98469.79
2018-05-31T23:04:38.955Z,98495.58
2018-05-31T23:07:06.077Z,98514.44
2018-05-31T23:09:32.460Z,98521.22
2018-05-31T23:11:58.832Z,98522.61
2018-05-31T23:14:27.331Z,98524.18
2018-05-31T23:16:54.825Z,98512.70
2018-05-31T23:19:22.272Z,98491.85
2018-05-31T23:21:48.685Z,98480.31
2018-05-31T23:24:16.574Z,98451.66
2018-05-31T23:26:43.816Z,98443.88
2018-05-31T23:29:10.948Z,98437.14
2018-05-31T23:31:37.341Z,98431.17
2018-05-31T23:34:03.707Z,98423.27
2018-05-31T23:36:31.617Z,98422.48
2018-05-31T23:38:58.255Z,98429.20
2018-05-31T23:41:25.385Z,98442.78
2018-05-31T23:43:52.573Z,98459.16
2018-05-31T23:46:19.151Z,98469.61
2018-05-31T23:48:45.549Z,98469.48
2018-05-31T23:51:11.946Z,98467.84
2018-05-31T23:53:39.410Z,98476.34
2018-05-31T23:56:05.798Z,98480.75
2018-05-31T23:58:32.158Z,98476.99
